Neptune Thalassa — SVBZ1 — position and weather

sailwx.info

Track history (hours):
 
Tides and Currents Weather Stations Pressure Air Temp Water Temp Dewpoint Dewpoint Depression Visibility Wind Speed Wind Dir Waves Ship Positions

Neptune Thalassa

Last reported at 2018-Apr-20 18:29 UTC. Time now 2018-Apr-22 06:35 UTC.
Position N 43°20' E 005°21'.

Length 170 m; draft 8.1 m.

Type: Cargo ship. MMSI: 241319000.

Date/timePositionNaut miles runAvg speedWind from/ knotsBaromVisibWave heightAir tempDewpointWater temp
2018-Apr-20 18:29N 43°20' E 005°21'3 5.8
2018-Apr-20 18:00N 43°21' E 005°18'5 9.3
2018-Apr-20 17:30N 43°17' E 005°13'714.7
2018-Apr-20 17:00N 43°12' E 005°07'816.0
2018-Apr-20 16:31N 43°06' E 004°60'713.8
2018-Apr-20 16:00N 43°00' E 004°54'0 0.2
2018-Apr-20 14:02N 43°00' E 004°53'0 0.1
2018-Apr-20 13:57N 43°00' E 004°53'0 0.2
2018-Apr-20 13:16N 43°00' E 004°53'0 0.2
2018-Apr-20 13:00N 43°00' E 004°53'0 0.1
2018-Apr-20 12:27N 43°00' E 004°53'0 0.3
2018-Apr-20 12:00N 43°00' E 004°53'1 1.7
2018-Apr-20 11:29N 43°01' E 004°54'10513.1
2018-Apr-20 03:29N 42°59' E 007°17'5213.9
2018-Apr-19 23:46N 43°04' E 008°27'414.5
2018-Apr-19 23:30N 43°04' E 008°33'714.4
2018-Apr-19 23:00N 43°05' E 008°42'714.2
2018-Apr-19 22:31N 43°05' E 008°52'714.0
2018-Apr-19 22:01N 43°06' E 009°02'713.9
2018-Apr-19 21:30N 43°06' E 009°11'714.0
2018-Apr-19 21:00N 43°07' E 009°21'713.5
2018-Apr-19 20:30N 43°06' E 009°30'714.0
2018-Apr-19 20:00N 43°02' E 009°37'714.1
2018-Apr-19 19:29N 42°55' E 009°41'2514.0
2018-Apr-19 17:44N 42°41' E 010°08'413.9
2018-Apr-19 17:26N 42°38' E 010°13'613.8
2018-Apr-19 16:58N 42°34' E 010°20'1113.9
2018-Apr-19 16:13N 42°27' E 010°31'  
2018-Apr-16 22:14N 37°15' E 012°02'727.2
2018-Apr-16 22:00N 37°14' E 012°10'613.0
2018-Apr-16 21:30N 37°14' E 012°18'4316.3
2018-Apr-16 18:53N 37°09' E 013°12'1316.6
2018-Apr-16 18:05N 37°01' E 013°25'222.9
2018-Apr-16 17:59N 36°60' E 013°27'612.5
2018-Apr-16 17:30N 36°56' E 013°33'1316.1
2018-Apr-16 16:41N 36°48' E 013°46'714.6
2018-Apr-16 16:14N 36°45' E 013°53'615.3
2018-Apr-16 15:52N 36°41' E 013°59'1115.3
2018-Apr-16 15:08N 36°37' E 014°12'515.4
2018-Apr-16 14:48N 36°35' E 014°18'414.6
2018-Apr-16 14:29N 36°34' E 014°23'715.4
2018-Apr-16 14:00N 36°31' E 014°32'814.9
2018-Apr-16 13:30N 36°30' E 014°41'46514.6
2018-Apr-15 05:36N 37°45' E 024°16'  
2018-Apr-11 06:22N 40°00' E 026°09'714.6
2018-Apr-11 05:54N 39°58' E 026°01'916.6
2018-Apr-11 05:22N 39°51' E 025°53'616.5
2018-Apr-11 05:00N 39°46' E 025°49'816.9
2018-Apr-11 04:30N 39°38' E 025°45'1017.0
2018-Apr-11 03:54N 39°29' E 025°40'2116.9
2018-Apr-11 02:40N 39°11' E 025°26'2416.9
2018-Apr-11 01:16N 38°50' E 025°13'1516.2
2018-Apr-11 00:19N 38°36' E 025°05'516.2
2018-Apr-11 00:00N 38°31' E 025°02'6815.7
2018-Apr-10 19:40N 37°37' E 024°09'616.0
2018-Apr-10 19:19N 37°37' E 024°02'715.9
2018-Apr-10 18:54N 37°37' E 023°54'616.1
2018-Apr-10 18:30N 37°39' E 023°46'  
Track history (hours):
 
Tides and Currents Weather Stations Pressure Air Temp Water Temp Dewpoint Dewpoint Depression Visibility Wind Speed Wind Dir Waves Ship Positions

Neptune Thalassa

Last reported at 2018-Apr-20 18:29 UTC. Time now 2018-Apr-22 06:35 UTC.
Position N 43°20' E 005°21'.

Length 170 m; draft 8.1 m.

Type: Cargo ship. MMSI: 241319000.

Date/timePositionNaut miles runAvg speedWind from/ knotsBaromVisibWave heightAir tempDewpointWater temp
2018-Apr-20 18:29N 43°20' E 005°21'3 5.8
2018-Apr-20 18:00N 43°21' E 005°18'5 9.3
2018-Apr-20 17:30N 43°17' E 005°13'714.7
2018-Apr-20 17:00N 43°12' E 005°07'816.0
2018-Apr-20 16:31N 43°06' E 004°60'713.8
2018-Apr-20 16:00N 43°00' E 004°54'0 0.2
2018-Apr-20 14:02N 43°00' E 004°53'0 0.1
2018-Apr-20 13:57N 43°00' E 004°53'0 0.2
2018-Apr-20 13:16N 43°00' E 004°53'0 0.2
2018-Apr-20 13:00N 43°00' E 004°53'0 0.1
2018-Apr-20 12:27N 43°00' E 004°53'0 0.3
2018-Apr-20 12:00N 43°00' E 004°53'1 1.7
2018-Apr-20 11:29N 43°01' E 004°54'10513.1
2018-Apr-20 03:29N 42°59' E 007°17'5213.9
2018-Apr-19 23:46N 43°04' E 008°27'414.5
2018-Apr-19 23:30N 43°04' E 008°33'714.4
2018-Apr-19 23:00N 43°05' E 008°42'714.2
2018-Apr-19 22:31N 43°05' E 008°52'714.0
2018-Apr-19 22:01N 43°06' E 009°02'713.9
2018-Apr-19 21:30N 43°06' E 009°11'714.0
2018-Apr-19 21:00N 43°07' E 009°21'713.5
2018-Apr-19 20:30N 43°06' E 009°30'714.0
2018-Apr-19 20:00N 43°02' E 009°37'714.1
2018-Apr-19 19:29N 42°55' E 009°41'2514.0
2018-Apr-19 17:44N 42°41' E 010°08'413.9
2018-Apr-19 17:26N 42°38' E 010°13'613.8
2018-Apr-19 16:58N 42°34' E 010°20'1113.9
2018-Apr-19 16:13N 42°27' E 010°31'  
2018-Apr-16 22:14N 37°15' E 012°02'727.2
2018-Apr-16 22:00N 37°14' E 012°10'613.0
2018-Apr-16 21:30N 37°14' E 012°18'4316.3
2018-Apr-16 18:53N 37°09' E 013°12'1316.6
2018-Apr-16 18:05N 37°01' E 013°25'222.9
2018-Apr-16 17:59N 36°60' E 013°27'612.5
2018-Apr-16 17:30N 36°56' E 013°33'1316.1
2018-Apr-16 16:41N 36°48' E 013°46'714.6
2018-Apr-16 16:14N 36°45' E 013°53'615.3
2018-Apr-16 15:52N 36°41' E 013°59'1115.3
2018-Apr-16 15:08N 36°37' E 014°12'515.4
2018-Apr-16 14:48N 36°35' E 014°18'414.6
2018-Apr-16 14:29N 36°34' E 014°23'715.4
2018-Apr-16 14:00N 36°31' E 014°32'814.9
2018-Apr-16 13:30N 36°30' E 014°41'46514.6
2018-Apr-15 05:36N 37°45' E 024°16'  
2018-Apr-11 06:22N 40°00' E 026°09'714.6
2018-Apr-11 05:54N 39°58' E 026°01'916.6
2018-Apr-11 05:22N 39°51' E 025°53'616.5
2018-Apr-11 05:00N 39°46' E 025°49'816.9
2018-Apr-11 04:30N 39°38' E 025°45'1017.0
2018-Apr-11 03:54N 39°29' E 025°40'2116.9
2018-Apr-11 02:40N 39°11' E 025°26'2416.9
2018-Apr-11 01:16N 38°50' E 025°13'1516.2
2018-Apr-11 00:19N 38°36' E 025°05'516.2
2018-Apr-11 00:00N 38°31' E 025°02'6815.7
2018-Apr-10 19:40N 37°37' E 024°09'616.0
2018-Apr-10 19:19N 37°37' E 024°02'715.9
2018-Apr-10 18:54N 37°37' E 023°54'616.1
2018-Apr-10 18:30N 37°39' E 023°46'  

Dump ship's entire track history